Etusivu
METAR-TAF:

METAR-TAF

Lentoasemat :

Chino, Kalifornia, Yhdysvallat

Leveyspiiri: 33-58-32N, Pituuspiiri: 117-37-25W, korkeus merenpinnasta: 198 m

Tämänhetkinen sää

Tämä raportti tehtiin 44 minuuttia sitten, kello 13.21 UTC
tyyntä
Lämpötila 6°C
Kosteus 81%
Ilmanpaine 1015 hPa
Näkyvyys: 6.4 km
selkeää
utua

METAR: KCNO 171321Z AUTO 00000KT 4SM BR CLR 06/03 A2998 RMK AO2 T00560033 $

Aika: 06:05 (14:05 UTC)


TAF: puuttuu

Säähavainnot ja -ennusteet yli 4000 lentoasemalta (METAR- ja TAF-raportit).

Käytössä olevat sääasemat on merkitty karttaan keltaisilla ja punaisilla pisteillä.

Aseta hiiri pisteen päälle nähdäksesi sääaseman nimen.

Klikkaa sitten nähdäksesi säähavainnot ja -ennusteet.

Kartan vaihtaminen: klikkaa mustalla rastilla varustettuja vihreitä pisteitä, niin voit zoomata sisään; viivalla varustettua vihreää pistettä, niin voit zoomata ulos tai vihreitä nuolia, niin pääset viereisille kartoille.


METAR-TAF: